sensor_id;sensor_type;location;lat;lon;timestamp;temperature;humidity
16384;DHT22;8301;51.440;6.610;2022-09-27T05:51:36;8.60;99.90
16384;DHT22;8301;51.440;6.610;2022-09-27T05:56:39;8.60;99.90
16384;DHT22;8301;51.440;6.610;2022-09-27T05:59:07;8.70;99.90
16384;DHT22;8301;51.440;6.610;2022-09-27T06:01:34;8.70;99.90
16384;DHT22;8301;51.440;6.610;2022-09-27T06:04:11;8.70;99.90
16384;DHT22;8301;51.440;6.610;2022-09-27T06:11:50;8.80;99.90
16384;DHT22;8301;51.440;6.610;2022-09-27T06:27:55;8.80;99.90
16384;DHT22;8301;51.440;6.610;2022-09-27T06:30:24;8.90;99.90
16384;DHT22;8301;51.440;6.610;2022-09-27T06:32:56;8.90;99.90
16384;DHT22;8301;51.440;6.610;2022-09-27T06:35:29;8.90;99.90
16384;DHT22;8301;51.440;6.610;2022-09-27T06:37:58;8.90;99.90
16384;DHT22;8301;51.440;6.610;2022-09-27T06:40:28;9.00;99.90
16384;DHT22;8301;51.440;6.610;2022-09-27T06:43:08;9.00;99.90
16384;DHT22;8301;51.440;6.610;2022-09-27T06:45:36;9.00;99.90
16384;DHT22;8301;51.440;6.610;2022-09-27T06:48:05;9.00;99.90
16384;DHT22;8301;51.440;6.610;2022-09-27T06:50:35;9.10;99.90
16384;DHT22;8301;51.440;6.610;2022-09-27T06:53:09;9.10;99.90
16384;DHT22;8301;51.440;6.610;2022-09-27T06:55:40;9.10;99.90
16384;DHT22;8301;51.440;6.610;2022-09-27T06:58:10;9.10;99.90
16384;DHT22;8301;51.440;6.610;2022-09-27T07:00:55;9.10;99.90
16384;DHT22;8301;51.440;6.610;2022-09-27T07:03:26;9.10;99.90
16384;DHT22;8301;51.440;6.610;2022-09-27T07:05:56;9.10;99.90
16384;DHT22;8301;51.440;6.610;2022-09-27T07:08:30;9.10;99.90
16384;DHT22;8301;51.440;6.610;2022-09-27T07:11:05;9.20;99.90
16384;DHT22;8301;51.440;6.610;2022-09-27T07:13:33;9.20;99.90
16384;DHT22;8301;51.440;6.610;2022-09-27T07:16:03;9.20;99.90
16384;DHT22;8301;51.440;6.610;2022-09-27T07:18:31;9.20;99.90
16384;DHT22;8301;51.440;6.610;2022-09-27T07:20:59;9.20;99.90
16384;DHT22;8301;51.440;6.610;2022-09-27T07:23:29;9.30;99.90
16384;DHT22;8301;51.440;6.610;2022-09-27T07:25:59;9.30;99.90
16384;DHT22;8301;51.440;6.610;2022-09-27T07:28:29;9.30;99.90
16384;DHT22;8301;51.440;6.610;2022-09-27T07:30:57;9.40;99.90
16384;DHT22;8301;51.440;6.610;2022-09-27T07:33:24;9.50;99.90
16384;DHT22;8301;51.440;6.610;2022-09-27T07:35:52;9.50;99.90
16384;DHT22;8301;51.440;6.610;2022-09-27T07:38:35;9.60;99.90
16384;DHT22;8301;51.440;6.610;2022-09-27T07:41:07;9.70;99.90
16384;DHT22;8301;51.440;6.610;2022-09-27T07:43:44;9.80;99.90
16384;DHT22;8301;51.440;6.610;2022-09-27T07:46:11;9.80;99.90
16384;DHT22;8301;51.440;6.610;2022-09-27T07:48:41;9.80;99.90
16384;DHT22;8301;51.440;6.610;2022-09-27T07:51:09;9.80;99.90
16384;DHT22;8301;51.440;6.610;2022-09-27T07:53:37;9.90;99.90
16384;DHT22;8301;51.440;6.610;2022-09-27T07:56:06;9.90;99.90
16384;DHT22;8301;51.440;6.610;2022-09-27T07:58:34;9.80;99.90
16384;DHT22;8301;51.440;6.610;2022-09-27T08:01:01;9.70;99.90
16384;DHT22;8301;51.440;6.610;2022-09-27T08:03:34;9.80;99.90
16384;DHT22;8301;51.440;6.610;2022-09-27T08:06:03;9.80;99.90
16384;DHT22;8301;51.440;6.610;2022-09-27T08:08:43;9.90;99.90
16384;DHT22;8301;51.440;6.610;2022-09-27T08:13:50;10.00;99.90
16384;DHT22;8301;51.440;6.610;2022-09-27T08:16:20;10.00;99.90
16384;DHT22;8301;51.440;6.610;2022-09-27T08:18:47;10.00;99.90
16384;DHT22;8301;51.440;6.610;2022-09-27T08:21:15;10.00;99.90
16384;DHT22;8301;51.440;6.610;2022-09-27T08:23:55;10.00;99.90
16384;DHT22;8301;51.440;6.610;2022-09-27T08:26:30;9.90;99.90
16384;DHT22;8301;51.440;6.610;2022-09-27T08:28:58;9.80;99.90
16384;DHT22;8301;51.440;6.610;2022-09-27T08:31:32;9.80;99.90
16384;DHT22;8301;51.440;6.610;2022-09-27T08:34:02;9.80;99.90
16384;DHT22;8301;51.440;6.610;2022-09-27T08:36:30;9.80;99.90
16384;DHT22;8301;51.440;6.610;2022-09-27T08:39:05;9.90;99.90
16384;DHT22;8301;51.440;6.610;2022-09-27T08:44:37;10.00;99.90
16384;DHT22;8301;51.440;6.610;2022-09-27T08:47:24;9.90;99.90
